sensor_id;sensor_type;location;lat;lon;timestamp;temperature;humidity
47576;DHT22;33304;52.456;13.328;2023-09-19T00:00:34;17.90;92.20
47576;DHT22;33304;52.456;13.328;2023-09-19T00:03:02;18.00;91.70
47576;DHT22;33304;52.456;13.328;2023-09-19T00:05:33;18.00;91.70
47576;DHT22;33304;52.456;13.328;2023-09-19T00:08:01;18.00;92.00
47576;DHT22;33304;52.456;13.328;2023-09-19T00:10:30;18.00;91.70
47576;DHT22;33304;52.456;13.328;2023-09-19T00:13:01;17.90;91.70
47576;DHT22;33304;52.456;13.328;2023-09-19T00:15:37;17.90;93.40
47576;DHT22;33304;52.456;13.328;2023-09-19T00:18:05;17.80;93.20
47576;DHT22;33304;52.456;13.328;2023-09-19T00:20:35;17.80;93.60
47576;DHT22;33304;52.456;13.328;2023-09-19T00:23:02;17.80;93.40
47576;DHT22;33304;52.456;13.328;2023-09-19T00:25:34;17.80;93.70
47576;DHT22;33304;52.456;13.328;2023-09-19T00:28:03;17.80;93.70
47576;DHT22;33304;52.456;13.328;2023-09-19T00:30:32;17.80;93.10
47576;DHT22;33304;52.456;13.328;2023-09-19T00:32:59;17.80;93.20
47576;DHT22;33304;52.456;13.328;2023-09-19T00:35:29;17.80;92.40
47576;DHT22;33304;52.456;13.328;2023-09-19T00:37:56;17.80;92.00
47576;DHT22;33304;52.456;13.328;2023-09-19T00:40:23;17.80;91.30
47576;DHT22;33304;52.456;13.328;2023-09-19T00:42:52;17.80;91.60
47576;DHT22;33304;52.456;13.328;2023-09-19T00:48:47;17.60;93.20
47576;DHT22;33304;52.456;13.328;2023-09-19T00:51:15;17.70;92.10
47576;DHT22;33304;52.456;13.328;2023-09-19T00:53:45;17.60;93.30
47576;DHT22;33304;52.456;13.328;2023-09-19T00:56:13;17.60;93.90
47576;DHT22;33304;52.456;13.328;2023-09-19T00:58:41;17.60;93.50
47576;DHT22;33304;52.456;13.328;2023-09-19T01:01:10;17.60;94.00
47576;DHT22;33304;52.456;13.328;2023-09-19T01:03:37;17.60;93.30
47576;DHT22;33304;52.456;13.328;2023-09-19T01:06:04;17.50;94.40
47576;DHT22;33304;52.456;13.328;2023-09-19T01:08:33;17.60;94.30
47576;DHT22;33304;52.456;13.328;2023-09-19T01:11:06;17.50;94.10
47576;DHT22;33304;52.456;13.328;2023-09-19T01:13:48;17.50;94.40
47576;DHT22;33304;52.456;13.328;2023-09-19T01:16:29;17.60;94.80
47576;DHT22;33304;52.456;13.328;2023-09-19T01:19:07;17.50;94.10
47576;DHT22;33304;52.456;13.328;2023-09-19T01:21:50;17.50;94.40
47576;DHT22;33304;52.456;13.328;2023-09-19T01:24:42;17.60;92.50
47576;DHT22;33304;52.456;13.328;2023-09-19T01:27:25;17.60;92.20
47576;DHT22;33304;52.456;13.328;2023-09-19T01:30:08;17.60;92.50
47576;DHT22;33304;52.456;13.328;2023-09-19T01:32:36;17.50;93.20
47576;DHT22;33304;52.456;13.328;2023-09-19T01:35:04;17.50;93.70
47576;DHT22;33304;52.456;13.328;2023-09-19T01:37:31;17.50;93.20
47576;DHT22;33304;52.456;13.328;2023-09-19T01:40:00;17.50;93.00
47576;DHT22;33304;52.456;13.328;2023-09-19T01:42:45;17.50;93.40
47576;DHT22;33304;52.456;13.328;2023-09-19T01:45:34;17.50;93.80
47576;DHT22;33304;52.456;13.328;2023-09-19T01:48:18;17.40;93.90
47576;DHT22;33304;52.456;13.328;2023-09-19T01:50:52;17.40;93.70
47576;DHT22;33304;52.456;13.328;2023-09-19T01:53:25;17.40;94.40
47576;DHT22;33304;52.456;13.328;2023-09-19T01:55:54;17.40;94.70
47576;DHT22;33304;52.456;13.328;2023-09-19T01:58:29;17.50;94.80
47576;DHT22;33304;52.456;13.328;2023-09-19T02:01:01;17.40;94.20
47576;DHT22;33304;52.456;13.328;2023-09-19T02:03:31;17.40;94.40
47576;DHT22;33304;52.456;13.328;2023-09-19T02:05:58;17.40;94.70
47576;DHT22;33304;52.456;13.328;2023-09-19T02:08:26;17.30;95.30
47576;DHT22;33304;52.456;13.328;2023-09-19T02:10:53;17.40;95.00
47576;DHT22;33304;52.456;13.328;2023-09-19T02:13:21;17.40;94.10
47576;DHT22;33304;52.456;13.328;2023-09-19T02:15:50;17.40;93.60
47576;DHT22;33304;52.456;13.328;2023-09-19T02:18:18;17.40;92.50
47576;DHT22;33304;52.456;13.328;2023-09-19T02:20:45;17.40;94.00
47576;DHT22;33304;52.456;13.328;2023-09-19T02:23:14;17.40;93.90
47576;DHT22;33304;52.456;13.328;2023-09-19T02:25:41;17.40;93.30
47576;DHT22;33304;52.456;13.328;2023-09-19T02:28:09;17.20;95.50
47576;DHT22;33304;52.456;13.328;2023-09-19T02:30:36;17.20;97.80
47576;DHT22;33304;52.456;13.328;2023-09-19T02:33:03;17.20;98.10
47576;DHT22;33304;52.456;13.328;2023-09-19T02:35:32;17.20;99.50
47576;DHT22;33304;52.456;13.328;2023-09-19T02:38:02;17.20;99.00
47576;DHT22;33304;52.456;13.328;2023-09-19T02:40:32;17.20;99.30
47576;DHT22;33304;52.456;13.328;2023-09-19T02:43:01;17.20;99.40
47576;DHT22;33304;52.456;13.328;2023-09-19T02:45:28;17.20;99.10
47576;DHT22;33304;52.456;13.328;2023-09-19T02:47:57;17.20;99.50
47576;DHT22;33304;52.456;13.328;2023-09-19T02:50:24;17.20;99.40
47576;DHT22;33304;52.456;13.328;2023-09-19T02:52:52;17.20;99.10
47576;DHT22;33304;52.456;13.328;2023-09-19T02:55:20;17.10;99.90
47576;DHT22;33304;52.456;13.328;2023-09-19T02:57:49;17.10;99.90
47576;DHT22;33304;52.456;13.328;2023-09-19T03:00:17;17.10;99.90
47576;DHT22;33304;52.456;13.328;2023-09-19T03:02:47;17.10;99.90
47576;DHT22;33304;52.456;13.328;2023-09-19T03:05:15;17.20;99.90
47576;DHT22;33304;52.456;13.328;2023-09-19T03:07:42;17.10;99.90
47576;DHT22;33304;52.456;13.328;2023-09-19T03:10:16;17.20;99.90
47576;DHT22;33304;52.456;13.328;2023-09-19T03:12:45;17.30;99.90
47576;DHT22;33304;52.456;13.328;2023-09-19T03:15:13;17.20;99.90
47576;DHT22;33304;52.456;13.328;2023-09-19T03:17:43;17.20;99.90
47576;DHT22;33304;52.456;13.328;2023-09-19T03:20:12;17.20;99.40
47576;DHT22;33304;52.456;13.328;2023-09-19T03:22:40;17.20;98.50
47576;DHT22;33304;52.456;13.328;2023-09-19T03:25:07;17.20;99.00
47576;DHT22;33304;52.456;13.328;2023-09-19T03:27:40;17.10;99.50
47576;DHT22;33304;52.456;13.328;2023-09-19T03:30:07;17.20;99.40
47576;DHT22;33304;52.456;13.328;2023-09-19T03:32:46;17.10;97.40
47576;DHT22;33304;52.456;13.328;2023-09-19T03:35:17;17.10;97.50
47576;DHT22;33304;52.456;13.328;2023-09-19T03:37:45;17.10;95.90
47576;DHT22;33304;52.456;13.328;2023-09-19T03:40:14;17.10;95.60
47576;DHT22;33304;52.456;13.328;2023-09-19T03:42:43;17.00;95.50
47576;DHT22;33304;52.456;13.328;2023-09-19T03:45:13;17.10;95.50
47576;DHT22;33304;52.456;13.328;2023-09-19T03:47:44;17.10;94.10
47576;DHT22;33304;52.456;13.328;2023-09-19T03:50:13;17.10;92.20
47576;DHT22;33304;52.456;13.328;2023-09-19T03:52:43;17.10;90.50
47576;DHT22;33304;52.456;13.328;2023-09-19T03:55:10;17.10;82.70
47576;DHT22;33304;52.456;13.328;2023-09-19T03:57:39;17.20;66.50
47576;DHT22;33304;52.456;13.328;2023-09-19T04:00:08;17.20;53.30
47576;DHT22;33304;52.456;13.328;2023-09-19T04:02:38;17.30;42.40
47576;DHT22;33304;52.456;13.328;2023-09-19T04:05:07;17.30;38.20
47576;DHT22;33304;52.456;13.328;2023-09-19T04:07:35;17.30;34.70
47576;DHT22;33304;52.456;13.328;2023-09-19T04:10:03;17.30;32.50
47576;DHT22;33304;52.456;13.328;2023-09-19T04:12:30;17.40;28.60
47576;DHT22;33304;52.456;13.328;2023-09-19T04:14:58;17.40;27.70
47576;DHT22;33304;52.456;13.328;2023-09-19T04:17:27;17.40;27.20
47576;DHT22;33304;52.456;13.328;2023-09-19T04:19:54;17.40;27.20
47576;DHT22;33304;52.456;13.328;2023-09-19T04:22:21;17.40;27.20
47576;DHT22;33304;52.456;13.328;2023-09-19T04:24:48;17.40;27.20
47576;DHT22;33304;52.456;13.328;2023-09-19T04:27:15;17.40;27.20
47576;DHT22;33304;52.456;13.328;2023-09-19T04:29:43;17.40;26.40
47576;DHT22;33304;52.456;13.328;2023-09-19T04:32:10;17.30;25.90
47576;DHT22;33304;52.456;13.328;2023-09-19T04:34:40;17.30;26.20
47576;DHT22;33304;52.456;13.328;2023-09-19T04:37:08;17.30;25.40
47576;DHT22;33304;52.456;13.328;2023-09-19T04:39:35;17.30;26.00
47576;DHT22;33304;52.456;13.328;2023-09-19T04:42:02;17.30;25.80
47576;DHT22;33304;52.456;13.328;2023-09-19T04:44:30;17.20;25.50
47576;DHT22;33304;52.456;13.328;2023-09-19T04:46:57;17.30;25.20
47576;DHT22;33304;52.456;13.328;2023-09-19T04:49:25;17.20;25.70
47576;DHT22;33304;52.456;13.328;2023-09-19T04:51:53;17.20;26.50
47576;DHT22;33304;52.456;13.328;2023-09-19T04:54:21;17.10;26.90
47576;DHT22;33304;52.456;13.328;2023-09-19T04:56:48;17.10;27.00
47576;DHT22;33304;52.456;13.328;2023-09-19T04:59:15;17.10;26.20
47576;DHT22;33304;52.456;13.328;2023-09-19T05:01:43;17.20;24.50
47576;DHT22;33304;52.456;13.328;2023-09-19T05:04:10;17.20;24.20
47576;DHT22;33304;52.456;13.328;2023-09-19T05:06:37;17.20;24.10
47576;DHT22;33304;52.456;13.328;2023-09-19T05:09:05;17.20;23.90
47576;DHT22;33304;52.456;13.328;2023-09-19T05:11:32;17.20;23.30
47576;DHT22;33304;52.456;13.328;2023-09-19T05:13:59;17.10;23.60
47576;DHT22;33304;52.456;13.328;2023-09-19T05:16:29;17.10;24.50
47576;DHT22;33304;52.456;13.328;2023-09-19T05:18:57;16.90;24.40
47576;DHT22;33304;52.456;13.328;2023-09-19T05:21:25;16.90;25.00
47576;DHT22;33304;52.456;13.328;2023-09-19T05:23:54;16.90;24.80
47576;DHT22;33304;52.456;13.328;2023-09-19T05:26:23;16.90;25.10
47576;DHT22;33304;52.456;13.328;2023-09-19T05:28:50;16.90;24.70
47576;DHT22;33304;52.456;13.328;2023-09-19T05:31:18;16.90;24.90
47576;DHT22;33304;52.456;13.328;2023-09-19T05:33:46;16.90;24.30
47576;DHT22;33304;52.456;13.328;2023-09-19T05:36:13;16.90;23.80
47576;DHT22;33304;52.456;13.328;2023-09-19T05:38:42;16.90;24.70
47576;DHT22;33304;52.456;13.328;2023-09-19T05:41:10;16.80;23.90
47576;DHT22;33304;52.456;13.328;2023-09-19T05:43:40;16.90;24.20
47576;DHT22;33304;52.456;13.328;2023-09-19T05:46:07;16.80;23.90
47576;DHT22;33304;52.456;13.328;2023-09-19T05:48:35;16.80;24.70
47576;DHT22;33304;52.456;13.328;2023-09-19T05:51:02;16.70;24.40
47576;DHT22;33304;52.456;13.328;2023-09-19T05:53:29;16.70;24.30
47576;DHT22;33304;52.456;13.328;2023-09-19T05:55:56;16.70;24.30
47576;DHT22;33304;52.456;13.328;2023-09-19T05:58:24;16.70;24.60
47576;DHT22;33304;52.456;13.328;2023-09-19T06:00:52;16.60;24.90
47576;DHT22;33304;52.456;13.328;2023-09-19T06:03:21;16.80;24.40
47576;DHT22;33304;52.456;13.328;2023-09-19T06:05:49;16.80;24.50
47576;DHT22;33304;52.456;13.328;2023-09-19T06:08:17;16.80;24.20
47576;DHT22;33304;52.456;13.328;2023-09-19T06:10:44;16.70;24.40
47576;DHT22;33304;52.456;13.328;2023-09-19T06:13:12;16.80;24.10
47576;DHT22;33304;52.456;13.328;2023-09-19T06:15:40;16.90;23.90
47576;DHT22;33304;52.456;13.328;2023-09-19T06:18:11;16.90;24.10
47576;DHT22;33304;52.456;13.328;2023-09-19T06:20:42;16.80;23.80
47576;DHT22;33304;52.456;13.328;2023-09-19T06:23:12;16.80;23.70
47576;DHT22;33304;52.456;13.328;2023-09-19T06:25:39;16.90;23.20
47576;DHT22;33304;52.456;13.328;2023-09-19T06:28:06;17.00;23.10
47576;DHT22;33304;52.456;13.328;2023-09-19T06:30:38;17.00;23.60
47576;DHT22;33304;52.456;13.328;2023-09-19T06:33:08;17.00;22.40
47576;DHT22;33304;52.456;13.328;2023-09-19T06:35:37;16.90;22.60
47576;DHT22;33304;52.456;13.328;2023-09-19T06:38:04;16.90;22.40
47576;DHT22;33304;52.456;13.328;2023-09-19T06:40:33;17.10;22.30
47576;DHT22;33304;52.456;13.328;2023-09-19T06:43:01;17.10;22.30
47576;DHT22;33304;52.456;13.328;2023-09-19T06:45:29;17.20;21.80
47576;DHT22;33304;52.456;13.328;2023-09-19T06:47:57;17.20;21.90
47576;DHT22;33304;52.456;13.328;2023-09-19T06:50:27;17.30;22.10
47576;DHT22;33304;52.456;13.328;2023-09-19T06:52:57;17.40;20.80
47576;DHT22;33304;52.456;13.328;2023-09-19T06:55:25;17.40;20.50
47576;DHT22;33304;52.456;13.328;2023-09-19T06:57:54;17.50;19.50
47576;DHT22;33304;52.456;13.328;2023-09-19T07:00:21;17.60;19.40
47576;DHT22;33304;52.456;13.328;2023-09-19T07:02:56;17.80;18.80
47576;DHT22;33304;52.456;13.328;2023-09-19T07:05:24;18.00;18.30
47576;DHT22;33304;52.456;13.328;2023-09-19T07:07:55;18.30;18.20
47576;DHT22;33304;52.456;13.328;2023-09-19T07:10:22;18.40;16.40
47576;DHT22;33304;52.456;13.328;2023-09-19T07:12:56;18.40;15.20
47576;DHT22;33304;52.456;13.328;2023-09-19T07:15:23;18.40;14.00
47576;DHT22;33304;52.456;13.328;2023-09-19T07:17:51;18.30;13.90
47576;DHT22;33304;52.456;13.328;2023-09-19T07:20:19;18.40;13.80
47576;DHT22;33304;52.456;13.328;2023-09-19T07:22:46;18.50;13.50
47576;DHT22;33304;52.456;13.328;2023-09-19T07:25:15;18.60;13.40
47576;DHT22;33304;52.456;13.328;2023-09-19T07:27:42;18.70;13.90
47576;DHT22;33304;52.456;13.328;2023-09-19T07:30:10;18.80;12.00
47576;DHT22;33304;52.456;13.328;2023-09-19T07:32:38;18.60;11.60
47576;DHT22;33304;52.456;13.328;2023-09-19T07:35:07;18.80;12.50
47576;DHT22;33304;52.456;13.328;2023-09-19T07:37:34;18.80;11.70
47576;DHT22;33304;52.456;13.328;2023-09-19T07:40:02;18.80;10.80
47576;DHT22;33304;52.456;13.328;2023-09-19T07:42:34;18.90;11.20
47576;DHT22;33304;52.456;13.328;2023-09-19T07:45:03;18.90;10.80
47576;DHT22;33304;52.456;13.328;2023-09-19T07:47:30;18.90;10.90
47576;DHT22;33304;52.456;13.328;2023-09-19T07:49:59;18.80;11.40
47576;DHT22;33304;52.456;13.328;2023-09-19T07:52:27;18.80;11.00
47576;DHT22;33304;52.456;13.328;2023-09-19T07:54:55;19.00;10.40
47576;DHT22;33304;52.456;13.328;2023-09-19T07:57:23;19.10;8.80
47576;DHT22;33304;52.456;13.328;2023-09-19T07:59:52;19.10;9.80
47576;DHT22;33304;52.456;13.328;2023-09-19T08:02:19;19.10;8.70
47576;DHT22;33304;52.456;13.328;2023-09-19T08:04:46;19.00;9.20
47576;DHT22;33304;52.456;13.328;2023-09-19T08:07:13;19.00;8.60
47576;DHT22;33304;52.456;13.328;2023-09-19T08:09:43;18.90;8.60
47576;DHT22;33304;52.456;13.328;2023-09-19T08:12:14;18.80;8.50
47576;DHT22;33304;52.456;13.328;2023-09-19T08:14:41;18.90;7.80
47576;DHT22;33304;52.456;13.328;2023-09-19T08:17:09;19.00;6.80
47576;DHT22;33304;52.456;13.328;2023-09-19T08:19:37;18.90;5.40
47576;DHT22;33304;52.456;13.328;2023-09-19T08:22:08;18.80;6.40
47576;DHT22;33304;52.456;13.328;2023-09-19T08:24:36;18.70;6.60
47576;DHT22;33304;52.456;13.328;2023-09-19T08:27:04;18.50;6.80
47576;DHT22;33304;52.456;13.328;2023-09-19T08:29:35;18.50;6.70
47576;DHT22;33304;52.456;13.328;2023-09-19T08:32:02;18.40;7.40
47576;DHT22;33304;52.456;13.328;2023-09-19T08:34:32;18.40;7.20
47576;DHT22;33304;52.456;13.328;2023-09-19T08:37:00;18.30;7.20
47576;DHT22;33304;52.456;13.328;2023-09-19T08:39:27;18.30;7.10
47576;DHT22;33304;52.456;13.328;2023-09-19T08:41:57;18.40;6.90
47576;DHT22;33304;52.456;13.328;2023-09-19T08:44:25;18.50;7.20
47576;DHT22;33304;52.456;13.328;2023-09-19T08:46:55;18.60;6.70
47576;DHT22;33304;52.456;13.328;2023-09-19T08:49:36;18.50;8.30
47576;DHT22;33304;52.456;13.328;2023-09-19T08:52:09;18.60;5.30
47576;DHT22;33304;52.456;13.328;2023-09-19T08:54:44;18.60;5.70
47576;DHT22;33304;52.456;13.328;2023-09-19T08:57:12;18.60;5.60
47576;DHT22;33304;52.456;13.328;2023-09-19T08:59:47;18.70;5.20
47576;DHT22;33304;52.456;13.328;2023-09-19T09:02:15;18.80;5.20
47576;DHT22;33304;52.456;13.328;2023-09-19T09:04:47;18.70;4.60
47576;DHT22;33304;52.456;13.328;2023-09-19T09:07:16;18.60;5.10
47576;DHT22;33304;52.456;13.328;2023-09-19T09:09:44;18.60;4.30
47576;DHT22;33304;52.456;13.328;2023-09-19T09:12:12;18.70;4.80
47576;DHT22;33304;52.456;13.328;2023-09-19T09:14:44;18.60;4.80
47576;DHT22;33304;52.456;13.328;2023-09-19T09:17:12;18.70;4.20
47576;DHT22;33304;52.456;13.328;2023-09-19T09:19:39;18.80;4.50
47576;DHT22;33304;52.456;13.328;2023-09-19T09:22:11;18.90;4.30
47576;DHT22;33304;52.456;13.328;2023-09-19T09:24:51;18.80;3.10
47576;DHT22;33304;52.456;13.328;2023-09-19T09:27:20;18.90;2.50
47576;DHT22;33304;52.456;13.328;2023-09-19T09:29:51;18.90;2.80
47576;DHT22;33304;52.456;13.328;2023-09-19T09:32:22;18.90;1.90
47576;DHT22;33304;52.456;13.328;2023-09-19T09:34:52;19.20;1.90
47576;DHT22;33304;52.456;13.328;2023-09-19T09:37:21;19.40;1.00
47576;DHT22;33304;52.456;13.328;2023-09-19T09:39:52;19.40;1.00
47576;DHT22;33304;52.456;13.328;2023-09-19T09:42:29;19.50;1.00
47576;DHT22;33304;52.456;13.328;2023-09-19T09:45:16;19.80;1.00
47576;DHT22;33304;52.456;13.328;2023-09-19T09:47:45;20.00;1.00
47576;DHT22;33304;52.456;13.328;2023-09-19T09:50:27;20.00;1.00
47576;DHT22;33304;52.456;13.328;2023-09-19T09:53:19;20.10;1.00
47576;DHT22;33304;52.456;13.328;2023-09-19T09:56:01;20.20;1.00
47576;DHT22;33304;52.456;13.328;2023-09-19T09:58:31;20.40;1.00
47576;DHT22;33304;52.456;13.328;2023-09-19T10:00:59;20.10;1.00
47576;DHT22;33304;52.456;13.328;2023-09-19T10:03:35;19.70;1.00
47576;DHT22;33304;52.456;13.328;2023-09-19T10:06:07;19.60;1.00
47576;DHT22;33304;52.456;13.328;2023-09-19T10:08:59;19.50;1.00
47576;DHT22;33304;52.456;13.328;2023-09-19T10:11:43;19.50;1.00
47576;DHT22;33304;52.456;13.328;2023-09-19T10:14:13;19.60;1.00
47576;DHT22;33304;52.456;13.328;2023-09-19T10:16:43;20.00;1.00
47576;DHT22;33304;52.456;13.328;2023-09-19T10:19:17;20.00;1.00
47576;DHT22;33304;52.456;13.328;2023-09-19T10:21:49;20.20;1.00
47576;DHT22;33304;52.456;13.328;2023-09-19T10:24:19;20.20;1.00
47576;DHT22;33304;52.456;13.328;2023-09-19T10:26:48;20.30;1.00
47576;DHT22;33304;52.456;13.328;2023-09-19T10:29:17;20.30;1.00
47576;DHT22;33304;52.456;13.328;2023-09-19T10:31:47;20.20;1.00
47576;DHT22;33304;52.456;13.328;2023-09-19T10:34:17;20.20;1.00
47576;DHT22;33304;52.456;13.328;2023-09-19T10:36:45;20.40;1.00
47576;DHT22;33304;52.456;13.328;2023-09-19T10:39:15;20.70;1.00
47576;DHT22;33304;52.456;13.328;2023-09-19T10:41:51;20.70;1.00
47576;DHT22;33304;52.456;13.328;2023-09-19T10:44:23;20.60;1.00
47576;DHT22;33304;52.456;13.328;2023-09-19T10:46:51;20.50;1.00
47576;DHT22;33304;52.456;13.328;2023-09-19T10:49:20;20.50;1.00
47576;DHT22;33304;52.456;13.328;2023-09-19T10:51:49;20.70;1.00
47576;DHT22;33304;52.456;13.328;2023-09-19T10:54:19;20.90;1.00
47576;DHT22;33304;52.456;13.328;2023-09-19T10:56:50;21.00;1.00
47576;DHT22;33304;52.456;13.328;2023-09-19T10:59:18;21.00;1.00
47576;DHT22;33304;52.456;13.328;2023-09-19T11:01:47;21.00;1.00
47576;DHT22;33304;52.456;13.328;2023-09-19T11:04:24;20.90;1.00
47576;DHT22;33304;52.456;13.328;2023-09-19T11:07:03;20.70;1.00
47576;DHT22;33304;52.456;13.328;2023-09-19T11:09:43;20.50;1.00
47576;DHT22;33304;52.456;13.328;2023-09-19T11:12:47;20.50;1.00
47576;DHT22;33304;52.456;13.328;2023-09-19T11:18:52;20.20;1.00
47576;DHT22;33304;52.456;13.328;2023-09-19T11:21:51;20.30;1.00
47576;DHT22;33304;52.456;13.328;2023-09-19T11:24:30;20.50;1.00
47576;DHT22;33304;52.456;13.328;2023-09-19T11:27:10;20.40;1.00
47576;DHT22;33304;52.456;13.328;2023-09-19T11:29:40;20.40;1.00
47576;DHT22;33304;52.456;13.328;2023-09-19T11:32:08;20.60;1.00
47576;DHT22;33304;52.456;13.328;2023-09-19T11:34:43;20.80;1.00
47576;DHT22;33304;52.456;13.328;2023-09-19T11:40:37;20.90;1.00
47576;DHT22;33304;52.456;13.328;2023-09-19T11:43:29;21.10;1.00
47576;DHT22;33304;52.456;13.328;2023-09-19T11:46:07;21.30;1.00
47576;DHT22;33304;52.456;13.328;2023-09-19T11:48:35;21.20;1.00
47576;DHT22;33304;52.456;13.328;2023-09-19T11:51:13;21.00;1.00
47576;DHT22;33304;52.456;13.328;2023-09-19T11:53:49;20.90;1.00
47576;DHT22;33304;52.456;13.328;2023-09-19T11:56:17;21.20;1.00
47576;DHT22;33304;52.456;13.328;2023-09-19T11:58:46;21.30;1.00
47576;DHT22;33304;52.456;13.328;2023-09-19T12:01:22;21.20;1.00
47576;DHT22;33304;52.456;13.328;2023-09-19T12:03:53;21.10;1.00
47576;DHT22;33304;52.456;13.328;2023-09-19T12:06:23;21.10;1.00
47576;DHT22;33304;52.456;13.328;2023-09-19T12:08:50;21.00;1.00
47576;DHT22;33304;52.456;13.328;2023-09-19T12:11:30;20.90;1.00
47576;DHT22;33304;52.456;13.328;2023-09-19T12:14:09;21.20;1.00
47576;DHT22;33304;52.456;13.328;2023-09-19T12:16:37;21.30;1.00
47576;DHT22;33304;52.456;13.328;2023-09-19T12:19:18;21.10;1.00
47576;DHT22;33304;52.456;13.328;2023-09-19T12:21:54;21.30;1.00
47576;DHT22;33304;52.456;13.328;2023-09-19T12:24:22;21.30;1.00
47576;DHT22;33304;52.456;13.328;2023-09-19T12:26:49;21.30;1.00
47576;DHT22;33304;52.456;13.328;2023-09-19T12:29:19;21.20;1.00
47576;DHT22;33304;52.456;13.328;2023-09-19T12:31:55;21.30;1.00
47576;DHT22;33304;52.456;13.328;2023-09-19T12:34:24;21.40;1.00
47576;DHT22;33304;52.456;13.328;2023-09-19T12:37:06;21.40;1.00
47576;DHT22;33304;52.456;13.328;2023-09-19T12:39:39;21.60;1.00
47576;DHT22;33304;52.456;13.328;2023-09-19T12:42:10;21.90;1.00
47576;DHT22;33304;52.456;13.328;2023-09-19T12:44:44;22.00;1.00
47576;DHT22;33304;52.456;13.328;2023-09-19T12:47:14;22.00;1.00
47576;DHT22;33304;52.456;13.328;2023-09-19T12:50:09;21.70;1.00
47576;DHT22;33304;52.456;13.328;2023-09-19T12:52:41;21.60;1.00
47576;DHT22;33304;52.456;13.328;2023-09-19T12:55:20;21.80;1.00
47576;DHT22;33304;52.456;13.328;2023-09-19T12:57:58;21.80;1.00
47576;DHT22;33304;52.456;13.328;2023-09-19T13:00:33;21.60;1.00
47576;DHT22;33304;52.456;13.328;2023-09-19T13:03:16;21.50;1.00
47576;DHT22;33304;52.456;13.328;2023-09-19T13:05:48;21.50;1.00
47576;DHT22;33304;52.456;13.328;2023-09-19T13:08:25;21.50;1.00
47576;DHT22;33304;52.456;13.328;2023-09-19T13:11:06;21.40;1.00
47576;DHT22;33304;52.456;13.328;2023-09-19T13:13:36;21.50;1.00
47576;DHT22;33304;52.456;13.328;2023-09-19T13:16:04;21.70;1.00
47576;DHT22;33304;52.456;13.328;2023-09-19T13:18:46;22.10;1.00
47576;DHT22;33304;52.456;13.328;2023-09-19T13:21:17;21.70;1.00
47576;DHT22;33304;52.456;13.328;2023-09-19T13:23:54;21.70;1.00
47576;DHT22;33304;52.456;13.328;2023-09-19T13:26:25;21.50;1.00
47576;DHT22;33304;52.456;13.328;2023-09-19T13:28:54;21.50;1.00
47576;DHT22;33304;52.456;13.328;2023-09-19T13:31:21;21.70;1.00
47576;DHT22;33304;52.456;13.328;2023-09-19T13:33:50;21.70;1.00
47576;DHT22;33304;52.456;13.328;2023-09-19T13:36:18;21.80;1.00
47576;DHT22;33304;52.456;13.328;2023-09-19T13:38:45;21.80;1.00
47576;DHT22;33304;52.456;13.328;2023-09-19T13:41:14;21.80;1.00
47576;DHT22;33304;52.456;13.328;2023-09-19T13:43:42;21.80;1.00
47576;DHT22;33304;52.456;13.328;2023-09-19T13:46:14;22.00;1.00
47576;DHT22;33304;52.456;13.328;2023-09-19T13:48:42;22.20;1.00
47576;DHT22;33304;52.456;13.328;2023-09-19T13:51:10;22.10;1.00
47576;DHT22;33304;52.456;13.328;2023-09-19T13:53:37;21.70;1.00
47576;DHT22;33304;52.456;13.328;2023-09-19T13:56:04;21.80;1.00
47576;DHT22;33304;52.456;13.328;2023-09-19T13:58:32;21.80;1.00
47576;DHT22;33304;52.456;13.328;2023-09-19T14:01:00;22.00;1.00
47576;DHT22;33304;52.456;13.328;2023-09-19T14:03:27;22.00;1.00
47576;DHT22;33304;52.456;13.328;2023-09-19T14:05:54;22.10;1.00
47576;DHT22;33304;52.456;13.328;2023-09-19T14:08:23;22.30;1.00
47576;DHT22;33304;52.456;13.328;2023-09-19T14:10:50;22.60;1.00
47576;DHT22;33304;52.456;13.328;2023-09-19T14:13:17;22.70;1.00
47576;DHT22;33304;52.456;13.328;2023-09-19T14:15:46;22.70;1.00
47576;DHT22;33304;52.456;13.328;2023-09-19T14:18:13;22.60;1.00
47576;DHT22;33304;52.456;13.328;2023-09-19T14:20:40;22.50;1.00
47576;DHT22;33304;52.456;13.328;2023-09-19T14:23:07;22.20;1.00
47576;DHT22;33304;52.456;13.328;2023-09-19T14:25:36;22.20;1.00
47576;DHT22;33304;52.456;13.328;2023-09-19T14:28:04;22.30;1.00
47576;DHT22;33304;52.456;13.328;2023-09-19T14:30:33;22.30;1.00
47576;DHT22;33304;52.456;13.328;2023-09-19T14:33:00;22.10;1.00
47576;DHT22;33304;52.456;13.328;2023-09-19T14:35:28;22.00;1.00
47576;DHT22;33304;52.456;13.328;2023-09-19T14:37:55;22.00;1.00
47576;DHT22;33304;52.456;13.328;2023-09-19T14:40:22;22.10;1.00
47576;DHT22;33304;52.456;13.328;2023-09-19T14:42:51;21.90;1.00
47576;DHT22;33304;52.456;13.328;2023-09-19T14:45:18;21.80;1.00
47576;DHT22;33304;52.456;13.328;2023-09-19T14:47:46;21.50;1.00
47576;DHT22;33304;52.456;13.328;2023-09-19T14:50:14;21.40;1.00
47576;DHT22;33304;52.456;13.328;2023-09-19T14:52:41;21.40;1.00
47576;DHT22;33304;52.456;13.328;2023-09-19T14:55:08;21.40;1.00
47576;DHT22;33304;52.456;13.328;2023-09-19T14:57:40;21.40;1.00
47576;DHT22;33304;52.456;13.328;2023-09-19T15:00:12;21.40;1.00
47576;DHT22;33304;52.456;13.328;2023-09-19T15:02:40;21.40;1.00
47576;DHT22;33304;52.456;13.328;2023-09-19T15:05:07;21.40;1.00
47576;DHT22;33304;52.456;13.328;2023-09-19T15:07:35;21.40;1.00
47576;DHT22;33304;52.456;13.328;2023-09-19T15:10:04;21.50;1.00
47576;DHT22;33304;52.456;13.328;2023-09-19T15:12:35;21.50;1.00
47576;DHT22;33304;52.456;13.328;2023-09-19T15:15:04;21.50;1.00
47576;DHT22;33304;52.456;13.328;2023-09-19T15:17:35;21.50;1.00
47576;DHT22;33304;52.456;13.328;2023-09-19T15:20:03;21.40;1.00
47576;DHT22;33304;52.456;13.328;2023-09-19T15:22:32;21.30;1.00
47576;DHT22;33304;52.456;13.328;2023-09-19T15:25:00;21.30;1.00
47576;DHT22;33304;52.456;13.328;2023-09-19T15:27:27;21.30;1.00
47576;DHT22;33304;52.456;13.328;2023-09-19T15:29:56;21.10;1.00
47576;DHT22;33304;52.456;13.328;2023-09-19T15:32:24;21.00;1.00
47576;DHT22;33304;52.456;13.328;2023-09-19T15:34:53;20.90;1.00
47576;DHT22;33304;52.456;13.328;2023-09-19T15:37:20;20.90;1.00
47576;DHT22;33304;52.456;13.328;2023-09-19T15:39:48;21.10;1.00
47576;DHT22;33304;52.456;13.328;2023-09-19T15:42:15;21.10;1.00
47576;DHT22;33304;52.456;13.328;2023-09-19T15:44:42;21.10;1.00
47576;DHT22;33304;52.456;13.328;2023-09-19T15:47:10;21.10;1.00
47576;DHT22;33304;52.456;13.328;2023-09-19T15:49:37;20.90;1.00
47576;DHT22;33304;52.456;13.328;2023-09-19T15:52:06;20.90;1.00